Time;durP1;ratioP1;P1;durP2;ratioP2;P2;SDS_P1;SDS_P2;PMS_P1;PMS_P2;Temp;Humidity;BMP_temperature;BMP_pressure;BME280_temperature;BME280_humidity;BME280_pressure;Samples;Min_cycle;Max_cycle;Signal;HPM_P1;HPM_P2
2023/01/18 00:00:52;;;;;;;10.93;3.15;;;;;;;;;;4976255;28;20490;-73
2023/01/18 00:03:18;;;;;;;9.43;2.30;;;;;;;;;;4978573;28;20037;-72
2023/01/18 00:05:44;;;;;;;9.05;1.75;;;;;;;;;;4976580;28;20077;-72
2023/01/18 00:08:12;;;;;;;9.60;2.42;;;;;;;;;;4982835;28;20042;-73
2023/01/18 00:10:38;;;;;;;8.30;1.85;;;;;;;;;;4978090;28;20459;-72
2023/01/18 00:13:05;;;;;;;9.98;2.20;;;;;;;;;;4986029;28;20057;-72
2023/01/18 00:15:32;;;;;;;11.10;2.10;;;;;;;;;;4981216;28;20022;-72
2023/01/18 00:17:58;;;;;;;11.35;1.80;;;;;;;;;;4979144;28;20042;-72
2023/01/18 00:20:25;;;;;;;7.35;1.77;;;;;;;;;;4978139;28;20735;-72
2023/01/18 00:22:51;;;;;;;14.95;1.90;;;;;;;;;;4976715;28;20042;-72
2023/01/18 00:25:18;;;;;;;10.57;1.88;;;;;;;;;;4983091;28;20022;-72
2023/01/18 00:27:47;;;;;;;18.45;2.15;;;;;;;;;;4977003;28;20143;-72
2023/01/18 00:30:14;;;;;;;11.45;2.47;;;;;;;;;;4982726;28;20542;-72
2023/01/18 00:32:40;;;;;;;8.57;2.17;;;;;;;;;;4982164;28;20038;-73
2023/01/18 00:35:07;;;;;;;6.25;1.77;;;;;;;;;;4981599;28;20537;-72
2023/01/18 00:37:36;;;;;;;8.48;1.77;;;;;;;;;;4980769;28;20041;-72
2023/01/18 00:40:03;;;;;;;6.30;2.03;;;;;;;;;;4980782;28;20066;-72
2023/01/18 00:45:14;;;;;;;16.60;2.60;;;;;;;;;;4982576;28;20080;-72
2023/01/18 00:47:40;;;;;;;15.55;3.17;;;;;;;;;;4983816;28;20530;-72
2023/01/18 00:50:07;;;;;;;15.15;3.13;;;;;;;;;;4983201;28;20035;-72
2023/01/18 00:52:33;;;;;;;17.05;3.70;;;;;;;;;;4976399;28;20023;-73
2023/01/18 00:55:03;;;;;;;10.55;2.47;;;;;;;;;;4983144;28;20031;-71
2023/01/18 00:57:30;;;;;;;15.75;1.98;;;;;;;;;;4981677;28;20031;-71
2023/01/18 00:59:56;;;;;;;11.85;3.05;;;;;;;;;;4980681;28;20483;-72
2023/01/18 01:02:22;;;;;;;11.85;2.00;;;;;;;;;;4979522;28;20101;-72
2023/01/18 01:07:34;;;;;;;7.85;1.75;;;;;;;;;;4981983;28;20045;-71
2023/01/18 01:10:07;;;;;;;1.95;0.70;;;;;;;;;;4981755;28;20034;-71
2023/01/18 01:26:17;;;;;;;2.33;1.05;;;;;;;;;;4985718;28;20033;-71
2023/01/18 01:28:44;;;;;;;4.35;0.70;;;;;;;;;;4984770;28;20138;-71
2023/01/18 01:31:11;;;;;;;3.00;0.60;;;;;;;;;;4984467;28;20026;-71
2023/01/18 01:33:38;;;;;;;3.03;0.90;;;;;;;;;;4984502;28;20030;-71
2023/01/18 01:36:05;;;;;;;2.80;0.70;;;;;;;;;;4983852;28;20035;-71
2023/01/18 01:38:32;;;;;;;4.28;2.30;;;;;;;;;;4983022;28;20030;-71
2023/01/18 01:41:01;;;;;;;3.58;0.77;;;;;;;;;;4981180;28;20591;-71
2023/01/18 01:43:41;;;;;;;2.88;0.80;;;;;;;;;;4979759;28;20031;-71
2023/01/18 01:46:13;;;;;;;3.75;1.25;;;;;;;;;;4978209;28;20030;-71
2023/01/18 01:48:39;;;;;;;2.35;0.73;;;;;;;;;;4984401;28;20045;-71
2023/01/18 01:51:05;;;;;;;3.03;0.93;;;;;;;;;;4978141;28;20041;-71
2023/01/18 01:53:31;;;;;;;4.28;0.80;;;;;;;;;;4983982;28;20030;-71
2023/01/18 01:55:58;;;;;;;4.55;0.80;;;;;;;;;;4977326;28;20041;-71
2023/01/18 01:58:26;;;;;;;9.02;1.30;;;;;;;;;;4978746;28;20026;-71
2023/01/18 02:00:53;;;;;;;4.50;0.88;;;;;;;;;;4973929;28;20026;-71
2023/01/18 02:03:20;;;;;;;3.90;1.00;;;;;;;;;;4927643;28;1453102;-71
2023/01/18 02:05:48;;;;;;;9.23;1.85;;;;;;;;;;4974826;28;20033;-71
2023/01/18 02:08:21;;;;;;;3.55;0.80;;;;;;;;;;4981341;28;20038;-71
2023/01/18 02:10:47;;;;;;;6.57;0.80;;;;;;;;;;4979565;28;20518;-71
2023/01/18 02:13:13;;;;;;;6.53;0.70;;;;;;;;;;4978967;28;20580;-71
2023/01/18 02:16:00;;;;;;;3.90;1.08;;;;;;;;;;4975945;28;20033;-71
2023/01/18 02:18:31;;;;;;;3.83;0.90;;;;;;;;;;4960654;28;20488;-71
2023/01/18 02:21:17;;;;;;;6.75;1.00;;;;;;;;;;4978818;28;20022;-71
2023/01/18 02:23:43;;;;;;;4.63;0.82;;;;;;;;;;4974648;28;20142;-71
2023/01/18 02:26:09;;;;;;;3.38;0.73;;;;;;;;;;4980748;28;20080;-71
2023/01/18 02:28:36;;;;;;;1.27;0.50;;;;;;;;;;4977908;28;20058;-71
2023/01/18 02:31:17;;;;;;;4.25;0.90;;;;;;;;;;4978395;28;20030;-71
2023/01/18 02:33:45;;;;;;;4.13;2.17;;;;;;;;;;4981355;28;20035;-71
2023/01/18 02:36:30;;;;;;;4.07;1.02;;;;;;;;;;4976469;28;20035;-71
2023/01/18 02:39:00;;;;;;;2.08;0.60;;;;;;;;;;4974578;28;20058;-71
2023/01/18 02:47:04;;;;;;;3.60;0.80;;;;;;;;;;4977126;28;20034;-71
2023/01/18 02:49:31;;;;;;;5.95;0.70;;;;;;;;;;4978697;28;20150;-71
2023/01/18 02:52:20;;;;;;;3.78;0.95;;;;;;;;;;4978132;28;20101;-71
2023/01/18 02:54:46;;;;;;;3.25;0.80;;;;;;;;;;4969781;28;20050;-71
2023/01/18 02:57:15;;;;;;;4.10;1.00;;;;;;;;;;4979111;28;20030;-71
2023/01/18 02:59:43;;;;;;;4.03;0.73;;;;;;;;;;4979049;28;20157;-71
2023/01/18 03:02:13;;;;;;;3.95;0.80;;;;;;;;;;4976166;28;20030;-71
2023/01/18 03:04:53;;;;;;;3.60;1.00;;;;;;;;;;4982927;28;20505;-71
2023/01/18 03:07:25;;;;;;;3.10;0.88;;;;;;;;;;4974675;28;20039;-71
2023/01/18 03:09:51;;;;;;;;;;;;;;;;;;4980677;28;20062;-70
2023/01/18 03:12:47;;;;;;;5.07;1.70;;;;;;;;;;4975197;28;20053;-71
2023/01/18 03:15:14;;;;;;;3.53;0.88;;;;;;;;;;4975422;28;20034;-71
2023/01/18 03:17:41;;;;;;;3.60;0.90;;;;;;;;;;4974644;28;20109;-71
2023/01/18 03:20:13;;;;;;;7.10;1.27;;;;;;;;;;4974230;28;20046;-71
2023/01/18 03:25:29;;;;;;;7.95;1.73;;;;;;;;;;4981319;28;20041;-71
2023/01/18 03:33:44;;;;;;;2.90;0.75;;;;;;;;;;4977119;28;21150;-71
2023/01/18 03:36:22;;;;;;;6.10;1.00;;;;;;;;;;4976900;28;20026;-71
2023/01/18 03:38:51;;;;;;;6.32;1.23;;;;;;;;;;4975670;28;20030;-71
2023/01/18 03:41:19;;;;;;;3.90;1.20;;;;;;;;;;4976585;28;20034;-71
2023/01/18 03:43:47;;;;;;;7.40;1.05;;;;;;;;;;4978363;28;20033;-71
2023/01/18 03:46:15;;;;;;;7.03;1.25;;;;;;;;;;4975532;28;20038;-71
2023/01/18 03:48:41;;;;;;;8.40;1.17;;;;;;;;;;4974709;28;20140;-71
2023/01/18 03:51:19;;;;;;;4.28;1.00;;;;;;;;;;4973460;28;20053;-71
2023/01/18 03:53:51;;;;;;;4.65;1.85;;;;;;;;;;4976984;28;20049;-71
2023/01/18 03:56:34;;;;;;;6.95;1.40;;;;;;;;;;4974190;28;20037;-71
2023/01/18 03:59:02;;;;;;;6.00;1.10;;;;;;;;;;4975839;28;20030;-71
2023/01/18 04:01:28;;;;;;;5.55;1.30;;;;;;;;;;4976179;28;20096;-71
2023/01/18 04:03:55;;;;;;;5.38;1.15;;;;;;;;;;4977185;28;20062;-71
2023/01/18 04:06:22;;;;;;;7.65;1.60;;;;;;;;;;4974539;28;20030;-70
2023/01/18 04:08:51;;;;;;;4.38;1.08;;;;;;;;;;4976633;28;20109;-71
2023/01/18 04:11:17;;;;;;;4.90;0.70;;;;;;;;;;4976876;28;20057;-71
2023/01/18 04:13:43;;;;;;;4.93;1.08;;;;;;;;;;4976881;28;20814;-71
2023/01/18 04:16:10;;;;;;;5.47;1.25;;;;;;;;;;4973404;28;20030;-71
2023/01/18 04:18:36;;;;;;;3.92;1.08;;;;;;;;;;4976653;28;20154;-71
2023/01/18 04:21:02;;;;;;;1.92;0.93;;;;;;;;;;4972083;28;20058;-71
2023/01/18 04:23:28;;;;;;;7.43;1.30;;;;;;;;;;4974599;28;20034;-71
2023/01/18 04:25:54;;;;;;;4.57;0.88;;;;;;;;;;4975099;28;20471;-71
2023/01/18 04:28:27;;;;;;;3.00;1.15;;;;;;;;;;4976966;28;20380;-71
2023/01/18 04:30:54;;;;;;;8.27;1.02;;;;;;;;;;4975599;28;20109;-71
2023/01/18 04:33:21;;;;;;;8.45;1.10;;;;;;;;;;4977570;28;20038;-71
2023/01/18 04:35:48;;;;;;;4.90;1.00;;;;;;;;;;4974214;28;20038;-71
2023/01/18 04:38:14;;;;;;;6.78;0.70;;;;;;;;;;4971293;28;20073;-71
2023/01/18 04:40:41;;;;;;;6.35;0.90;;;;;;;;;;4973777;28;20406;-71
2023/01/18 04:43:07;;;;;;;7.97;1.15;;;;;;;;;;4976662;28;20026;-71
2023/01/18 04:45:33;;;;;;;5.68;1.10;;;;;;;;;;4970444;28;20026;-71
2023/01/18 04:48:00;;;;;;;4.70;1.10;;;;;;;;;;4975939;28;20054;-71
2023/01/18 04:50:26;;;;;;;2.28;0.63;;;;;;;;;;4977220;28;20034;-71
2023/01/18 04:52:52;;;;;;;3.63;1.00;;;;;;;;;;4970604;28;20027;-71
2023/01/18 04:55:19;;;;;;;2.97;0.93;;;;;;;;;;4973860;28;20038;-71
2023/01/18 04:57:45;;;;;;;5.80;0.95;;;;;;;;;;4978935;28;20022;-71
2023/01/18 05:00:14;;;;;;;5.20;0.70;;;;;;;;;;4973072;28;20045;-71
2023/01/18 05:02:40;;;;;;;12.95;1.20;;;;;;;;;;4972026;28;20015;-71
2023/01/18 05:05:06;;;;;;;7.63;1.00;;;;;;;;;;4975185;28;20050;-71
2023/01/18 05:07:33;;;;;;;6.47;1.85;;;;;;;;;;4974368;28;20033;-71
2023/01/18 05:10:02;;;;;;;6.03;1.10;;;;;;;;;;4973587;28;20045;-71
2023/01/18 05:12:28;;;;;;;8.25;0.90;;;;;;;;;;4975995;28;20023;-71
2023/01/18 05:14:54;;;;;;;7.90;0.90;;;;;;;;;;4975507;28;20034;-71
2023/01/18 05:17:21;;;;;;;7.63;1.83;;;;;;;;;;4971084;28;20026;-71
2023/01/18 05:19:50;;;;;;;17.10;1.70;;;;;;;;;;4975466;28;20034;-71
2023/01/18 05:22:16;;;;;;;4.80;1.17;;;;;;;;;;4970949;28;20022;-71
2023/01/18 05:24:42;;;;;;;5.72;1.00;;;;;;;;;;4971483;28;20039;-71
2023/01/18 05:27:10;;;;;;;5.22;0.95;;;;;;;;;;4971468;28;20035;-73
2023/01/18 05:29:36;;;;;;;12.07;1.30;;;;;;;;;;4974494;28;20034;-72
2023/01/18 05:32:03;;;;;;;13.40;1.05;;;;;;;;;;4976523;28;20499;-72
2023/01/18 05:34:29;;;;;;;5.20;1.13;;;;;;;;;;4972254;28;20031;-72
2023/01/18 05:36:55;;;;;;;6.50;0.93;;;;;;;;;;4973435;28;20542;-72
2023/01/18 05:39:21;;;;;;;5.60;0.85;;;;;;;;;;4971523;28;20039;-72
2023/01/18 05:41:47;;;;;;;8.15;0.88;;;;;;;;;;4976447;28;20533;-72
2023/01/18 05:44:13;;;;;;;11.27;1.23;;;;;;;;;;4973590;28;20120;-72
2023/01/18 05:46:40;;;;;;;5.38;1.50;;;;;;;;;;4970437;28;20031;-72
2023/01/18 05:49:06;;;;;;;4.88;0.95;;;;;;;;;;4970900;28;20117;-72
2023/01/18 05:51:32;;;;;;;5.55;0.93;;;;;;;;;;4970400;28;20038;-72
2023/01/18 05:53:58;;;;;;;2.80;0.95;;;;;;;;;;4969106;28;20022;-72
2023/01/18 05:56:24;;;;;;;8.55;1.20;;;;;;;;;;4972559;28;20069;-72
2023/01/18 05:58:50;;;;;;;6.13;0.82;;;;;;;;;;4972930;28;20041;-72
2023/01/18 06:01:16;;;;;;;8.48;1.13;;;;;;;;;;4971859;28;20591;-72
2023/01/18 06:03:43;;;;;;;5.05;0.80;;;;;;;;;;4974053;28;20061;-72
2023/01/18 06:06:09;;;;;;;9.68;0.93;;;;;;;;;;4973267;28;20076;-72
2023/01/18 06:08:35;;;;;;;4.95;1.02;;;;;;;;;;4974749;28;20129;-72
2023/01/18 06:11:01;;;;;;;3.38;0.70;;;;;;;;;;4971468;28;20113;-72
2023/01/18 06:13:29;;;;;;;5.45;1.15;;;;;;;;;;4974393;28;20039;-72
2023/01/18 06:15:56;;;;;;;3.92;0.88;;;;;;;;;;4978664;28;20061;-72
2023/01/18 06:18:23;;;;;;;7.35;1.10;;;;;;;;;;4973324;28;20491;-73
2023/01/18 06:20:49;;;;;;;16.45;2.33;;;;;;;;;;4974923;28;20244;-72
2023/01/18 06:23:15;;;;;;;3.53;1.33;;;;;;;;;;4968199;28;20030;-72
2023/01/18 06:25:41;;;;;;;7.38;1.00;;;;;;;;;;4976168;28;20034;-72
2023/01/18 06:28:07;;;;;;;8.32;1.45;;;;;;;;;;4975733;28;20037;-72
2023/01/18 06:30:34;;;;;;;3.95;0.77;;;;;;;;;;4971768;28;20081;-72
2023/01/18 06:33:05;;;;;;;11.73;1.42;;;;;;;;;;4978939;28;20502;-72
2023/01/18 06:35:31;;;;;;;13.93;1.60;;;;;;;;;;4970686;28;20026;-72
2023/01/18 06:37:57;;;;;;;8.77;1.25;;;;;;;;;;4972764;28;20091;-72
2023/01/18 06:40:23;;;;;;;6.40;1.40;;;;;;;;;;4980079;28;20062;-73
2023/01/18 06:42:50;;;;;;;4.78;0.95;;;;;;;;;;4981456;28;20026;-74
2023/01/18 06:45:18;;;;;;;5.43;1.10;;;;;;;;;;4976232;28;20068;-72
2023/01/18 06:47:44;;;;;;;7.22;1.20;;;;;;;;;;4974331;28;20043;-72
2023/01/18 06:50:11;;;;;;;12.10;2.38;;;;;;;;;;4982514;28;20045;-72
2023/01/18 06:52:37;;;;;;;6.45;1.10;;;;;;;;;;4979171;28;20042;-72
2023/01/18 06:55:03;;;;;;;8.18;1.45;;;;;;;;;;4978627;28;20030;-73
2023/01/18 06:57:30;;;;;;;5.30;1.10;;;;;;;;;;4979625;28;20554;-72
2023/01/18 06:59:56;;;;;;;11.27;1.40;;;;;;;;;;4974585;28;21191;-72
2023/01/18 07:02:22;;;;;;;12.55;1.65;;;;;;;;;;4981282;28;20106;-72
2023/01/18 07:04:48;;;;;;;14.93;1.33;;;;;;;;;;4981695;28;20054;-73
2023/01/18 07:07:14;;;;;;;8.93;1.38;;;;;;;;;;4977710;28;20101;-72
2023/01/18 07:09:41;;;;;;;8.15;1.48;;;;;;;;;;4981589;28;20026;-73
2023/01/18 07:12:07;;;;;;;17.08;2.13;;;;;;;;;;4972844;28;20196;-71
2023/01/18 07:14:33;;;;;;;17.13;2.17;;;;;;;;;;4982551;28;20444;-71
2023/01/18 07:16:59;;;;;;;18.13;2.78;;;;;;;;;;4980770;28;20741;-72
2023/01/18 07:19:25;;;;;;;15.18;2.42;;;;;;;;;;4981302;28;20046;-71
2023/01/18 07:21:54;;;;;;;11.48;1.83;;;;;;;;;;4980421;28;20031;-71
2023/01/18 07:24:21;;;;;;;11.40;2.05;;;;;;;;;;4982353;28;20026;-71
2023/01/18 07:26:47;;;;;;;10.40;1.77;;;;;;;;;;4984235;28;20030;-72
2023/01/18 07:29:13;;;;;;;12.75;2.17;;;;;;;;;;4975603;28;20026;-72
2023/01/18 07:31:39;;;;;;;25.80;2.70;;;;;;;;;;4977541;28;20049;-72
2023/01/18 07:34:06;;;;;;;14.88;1.98;;;;;;;;;;4979069;28;20014;-71
2023/01/18 07:36:32;;;;;;;14.65;1.75;;;;;;;;;;4975902;28;20033;-72
2023/01/18 07:39:01;;;;;;;14.25;1.95;;;;;;;;;;4974566;28;20049;-72
2023/01/18 07:41:28;;;;;;;10.30;1.55;;;;;;;;;;4977562;28;20093;-72
2023/01/18 07:43:54;;;;;;;7.15;2.08;;;;;;;;;;4977234;28;20479;-72
2023/01/18 07:46:21;;;;;;;16.98;2.50;;;;;;;;;;4978058;28;20022;-72
2023/01/18 07:48:47;;;;;;;7.30;2.08;;;;;;;;;;4975698;28;20037;-72
2023/01/18 07:51:13;;;;;;;7.85;1.75;;;;;;;;;;4980364;28;20018;-72
2023/01/18 07:53:40;;;;;;;13.93;1.55;;;;;;;;;;4978169;28;20035;-72
2023/01/18 07:56:08;;;;;;;11.10;2.78;;;;;;;;;;4977135;28;20020;-72
2023/01/18 07:58:37;;;;;;;18.52;2.63;;;;;;;;;;4978488;28;20018;-71
2023/01/18 08:01:08;;;;;;;15.52;2.65;;;;;;;;;;4977859;28;20039;-72
2023/01/18 08:03:35;;;;;;;16.37;4.43;;;;;;;;;;4973290;28;20047;-72
2023/01/18 08:06:02;;;;;;;19.17;3.67;;;;;;;;;;4976696;28;20022;-72
2023/01/18 08:08:28;;;;;;;19.15;3.53;;;;;;;;;;4979408;28;20041;-72
2023/01/18 08:10:55;;;;;;;16.65;4.25;;;;;;;;;;4978526;28;20475;-72
2023/01/18 08:13:22;;;;;;;15.48;3.20;;;;;;;;;;4979257;28;20436;-72
2023/01/18 08:15:48;;;;;;;15.60;3.35;;;;;;;;;;4978350;28;20026;-72
2023/01/18 08:18:14;;;;;;;13.98;3.20;;;;;;;;;;4975486;28;20105;-72
2023/01/18 08:20:44;;;;;;;11.65;3.20;;;;;;;;;;4977525;28;20540;-72
2023/01/18 08:23:11;;;;;;;6.43;2.22;;;;;;;;;;4977236;28;20019;-72
2023/01/18 08:25:37;;;;;;;9.25;2.45;;;;;;;;;;4979941;28;20129;-72
2023/01/18 08:28:04;;;;;;;8.88;2.45;;;;;;;;;;4978487;28;20636;-72
2023/01/18 08:30:31;;;;;;;5.35;2.00;;;;;;;;;;4975919;28;20101;-72
2023/01/18 08:32:59;;;;;;;8.30;2.58;;;;;;;;;;4977430;28;20105;-71
2023/01/18 08:35:26;;;;;;;6.32;2.08;;;;;;;;;;4977576;28;20026;-72
2023/01/18 08:37:53;;;;;;;7.53;2.08;;;;;;;;;;4973967;28;20026;-71
2023/01/18 08:40:19;;;;;;;8.23;2.55;;;;;;;;;;4975997;28;20026;-71
2023/01/18 08:42:45;;;;;;;16.90;3.63;;;;;;;;;;4976967;28;20015;-71
2023/01/18 08:45:12;;;;;;;13.07;4.22;;;;;;;;;;4973684;28;20022;-71
2023/01/18 08:47:39;;;;;;;15.93;5.28;;;;;;;;;;4980171;28;20030;-71
2023/01/18 08:50:05;;;;;;;14.15;4.88;;;;;;;;;;4976292;28;20042;-71
2023/01/18 08:52:33;;;;;;;12.77;4.00;;;;;;;;;;4977049;28;20037;-71
2023/01/18 08:55:00;;;;;;;8.52;3.22;;;;;;;;;;4975767;28;20681;-72
2023/01/18 08:57:29;;;;;;;12.35;3.38;;;;;;;;;;4978659;28;20026;-72
2023/01/18 08:59:55;;;;;;;18.33;3.65;;;;;;;;;;4975072;28;20053;-72
2023/01/18 09:02:22;;;;;;;12.73;3.20;;;;;;;;;;4976995;28;20014;-71
2023/01/18 09:04:48;;;;;;;13.55;3.00;;;;;;;;;;4975671;28;20047;-72
2023/01/18 09:07:15;;;;;;;10.43;2.47;;;;;;;;;;4977270;28;20053;-72
2023/01/18 09:09:41;;;;;;;15.82;3.03;;;;;;;;;;4978340;28;20042;-72
2023/01/18 09:12:08;;;;;;;9.98;2.63;;;;;;;;;;4972587;28;20484;-72
2023/01/18 09:14:34;;;;;;;12.45;2.63;;;;;;;;;;4979085;28;20022;-72
2023/01/18 09:17:00;;;;;;;13.90;3.22;;;;;;;;;;4973163;28;20029;-72
2023/01/18 09:19:26;;;;;;;24.20;4.78;;;;;;;;;;4977080;28;20032;-71
2023/01/18 09:21:52;;;;;;;40.28;4.35;;;;;;;;;;4976833;28;20026;-71
2023/01/18 09:24:19;;;;;;;12.38;3.03;;;;;;;;;;4977411;28;20068;-72
2023/01/18 09:26:49;;;;;;;18.02;2.97;;;;;;;;;;4976744;28;20056;-72
2023/01/18 09:29:16;;;;;;;27.50;4.18;;;;;;;;;;4970801;28;20038;-72
2023/01/18 09:31:43;;;;;;;23.10;3.65;;;;;;;;;;4976666;28;20030;-71
2023/01/18 09:34:09;;;;;;;18.75;4.43;;;;;;;;;;4973177;28;20026;-72
2023/01/18 09:36:35;;;;;;;39.33;4.50;;;;;;;;;;4975943;28;20455;-72
2023/01/18 09:39:02;;;;;;;25.77;3.72;;;;;;;;;;4974007;28;20101;-72
2023/01/18 09:41:35;;;;;;;16.30;3.15;;;;;;;;;;4977719;28;20070;-72
2023/01/18 09:44:08;;;;;;;21.73;3.50;;;;;;;;;;4975611;28;20022;-71
2023/01/18 09:46:36;;;;;;;24.27;4.10;;;;;;;;;;4977645;28;20014;-71
2023/01/18 09:49:04;;;;;;;32.85;5.03;;;;;;;;;;4977675;28;20609;-70
2023/01/18 09:51:32;;;;;;;17.17;2.88;;;;;;;;;;4981915;28;20034;-70
2023/01/18 09:53:58;;;;;;;26.67;3.22;;;;;;;;;;4979302;28;20030;-71
2023/01/18 09:56:26;;;;;;;17.15;3.13;;;;;;;;;;4979249;28;20033;-71
2023/01/18 09:59:02;;;;;;;18.00;3.25;;;;;;;;;;4977992;28;20502;-71
2023/01/18 10:01:30;;;;;;;17.63;3.10;;;;;;;;;;4981194;28;20030;-71
2023/01/18 10:04:16;;;;;;;17.27;3.05;;;;;;;;;;4981432;28;20120;-71
2023/01/18 10:06:59;;;;;;;28.98;3.67;;;;;;;;;;4979452;28;20097;-71
2023/01/18 10:09:38;;;;;;;26.70;3.10;;;;;;;;;;4979121;28;20026;-71
2023/01/18 10:12:05;;;;;;;29.33;3.50;;;;;;;;;;4979416;28;20026;-71
2023/01/18 10:14:39;;;;;;;20.20;3.65;;;;;;;;;;4979579;28;20023;-71
2023/01/18 10:17:11;;;;;;;20.85;3.42;;;;;;;;;;4978446;28;20026;-72
2023/01/18 10:19:39;;;;;;;48.88;4.22;;;;;;;;;;4978245;28;20034;-71
2023/01/18 10:22:07;;;;;;;23.45;4.10;;;;;;;;;;4978794;28;20111;-71
2023/01/18 10:24:43;;;;;;;19.15;3.42;;;;;;;;;;4981243;28;20101;-71
2023/01/18 10:27:30;;;;;;;36.42;4.63;;;;;;;;;;4981744;28;20391;-71
2023/01/18 10:30:15;;;;;;;46.78;5.00;;;;;;;;;;4982268;28;20414;-71
2023/01/18 10:32:48;;;;;;;38.17;4.18;;;;;;;;;;4979139;28;20049;-71
2023/01/18 10:35:29;;;;;;;29.58;3.53;;;;;;;;;;4982044;28;20031;-71
2023/01/18 10:37:58;;;;;;;29.20;4.15;;;;;;;;;;4982059;28;20034;-71
2023/01/18 10:40:25;;;;;;;19.13;3.70;;;;;;;;;;4982315;28;20035;-72
2023/01/18 10:42:53;;;;;;;35.53;3.75;;;;;;;;;;4981856;28;20073;-71
2023/01/18 10:45:25;;;;;;;24.00;3.85;;;;;;;;;;4980354;28;20031;-71
2023/01/18 10:47:52;;;;;;;19.27;2.50;;;;;;;;;;4982291;28;20030;-71
2023/01/18 10:50:21;;;;;;;33.95;4.03;;;;;;;;;;4979036;28;20034;-71
2023/01/18 10:52:48;;;;;;;29.23;3.42;;;;;;;;;;4983627;28;20093;-71
2023/01/18 10:55:17;;;;;;;31.52;3.80;;;;;;;;;;4977973;28;20614;-72
2023/01/18 10:57:46;;;;;;;27.08;3.08;;;;;;;;;;4983995;28;20078;-72
2023/01/18 11:00:33;;;;;;;18.15;2.88;;;;;;;;;;4979871;28;20064;-71
2023/01/18 11:03:01;;;;;;;25.00;3.25;;;;;;;;;;4979793;28;20606;-71
2023/01/18 11:05:29;;;;;;;27.63;3.63;;;;;;;;;;4983045;28;20138;-71
2023/01/18 11:08:14;;;;;;;26.25;3.50;;;;;;;;;;4979931;28;20033;-71
2023/01/18 11:10:40;;;;;;;28.90;4.13;;;;;;;;;;4978627;28;20034;-71
2023/01/18 11:13:40;;;;;;;24.98;3.30;;;;;;;;;;4979340;28;20034;-71
2023/01/18 11:16:11;;;;;;;40.97;3.78;;;;;;;;;;4951890;28;20041;-72
2023/01/18 11:18:37;;;;;;;25.00;4.43;;;;;;;;;;4982003;28;20383;-72
2023/01/18 11:21:08;;;;;;;24.60;3.28;;;;;;;;;;4980332;28;20026;-71
2023/01/18 11:23:35;;;;;;;18.88;2.67;;;;;;;;;;4983089;28;20033;-71
2023/01/18 11:26:01;;;;;;;14.60;2.90;;;;;;;;;;4978504;28;20031;-71
2023/01/18 11:28:29;;;;;;;24.15;3.35;;;;;;;;;;4982313;28;20050;-72
2023/01/18 11:30:57;;;;;;;17.80;1.88;;;;;;;;;;4980567;28;20033;-72
2023/01/18 11:33:25;;;;;;;18.05;2.92;;;;;;;;;;4981875;28;20034;-72
2023/01/18 11:35:59;;;;;;;10.95;2.33;;;;;;;;;;4978406;28;20105;-72
2023/01/18 11:38:26;;;;;;;11.55;2.47;;;;;;;;;;4980073;28;20022;-71
2023/01/18 11:41:12;;;;;;;15.50;1.95;;;;;;;;;;4982491;28;20077;-72
2023/01/18 11:43:38;;;;;;;9.13;1.98;;;;;;;;;;4979292;28;20026;-72
2023/01/18 11:46:12;;;;;;;8.70;1.73;;;;;;;;;;4983910;28;20022;-72
2023/01/18 11:48:41;;;;;;;16.92;2.22;;;;;;;;;;4979323;28;20041;-71
2023/01/18 11:51:18;;;;;;;18.27;2.05;;;;;;;;;;4981285;28;20102;-72
2023/01/18 11:53:59;;;;;;;15.65;2.28;;;;;;;;;;4980703;28;20030;-72
2023/01/18 11:56:40;;;;;;;21.15;3.05;;;;;;;;;;4979557;28;20018;-72
2023/01/18 11:59:14;;;;;;;15.00;3.03;;;;;;;;;;4979358;28;20022;-71
2023/01/18 12:01:49;;;;;;;20.88;2.50;;;;;;;;;;4979520;28;20479;-71
2023/01/18 12:04:31;;;;;;;20.48;2.40;;;;;;;;;;4979703;28;20465;-71
2023/01/18 12:07:16;;;;;;;14.77;2.30;;;;;;;;;;4976291;28;20018;-71
2023/01/18 12:09:49;;;;;;;12.90;1.60;;;;;;;;;;4979116;28;20026;-72
2023/01/18 12:12:22;;;;;;;12.10;2.72;;;;;;;;;;4980328;28;20023;-72
2023/01/18 12:14:54;;;;;;;33.70;2.85;;;;;;;;;;4977591;28;20165;-72
2023/01/18 12:17:20;;;;;;;;;;;;;;;;;;4979700;28;20089;-72
2023/01/18 12:19:50;;;;;;;9.52;2.00;;;;;;;;;;4979044;28;19953;-71
2023/01/18 12:22:35;;;;;;;21.88;2.72;;;;;;;;;;4980017;28;20026;-72
2023/01/18 12:25:20;;;;;;;13.57;2.15;;;;;;;;;;4979413;28;20695;-72
2023/01/18 12:27:49;;;;;;;18.08;2.45;;;;;;;;;;4980889;28;20417;-71
2023/01/18 12:30:15;;;;;;;8.93;1.80;;;;;;;;;;4979824;28;20033;-72
2023/01/18 12:33:00;;;;;;;16.45;2.15;;;;;;;;;;4977481;28;20038;-72
2023/01/18 12:35:38;;;;;;;14.77;1.98;;;;;;;;;;4979652;28;20014;-72
2023/01/18 12:38:13;;;;;;;17.30;2.50;;;;;;;;;;4978933;28;20037;-72
2023/01/18 12:40:42;;;;;;;8.93;1.85;;;;;;;;;;4979751;28;20023;-72
2023/01/18 12:43:14;;;;;;;17.92;2.47;;;;;;;;;;4979865;28;20029;-72
2023/01/18 12:45:42;;;;;;;13.00;1.92;;;;;;;;;;4978917;28;20078;-72
2023/01/18 12:48:29;;;;;;;15.43;1.77;;;;;;;;;;4980235;28;20018;-72
2023/01/18 12:50:55;;;;;;;16.65;2.17;;;;;;;;;;4975690;28;20040;-72
2023/01/18 12:53:28;;;;;;;10.90;2.05;;;;;;;;;;4981167;28;20030;-72
2023/01/18 12:55:54;;;;;;;17.70;2.92;;;;;;;;;;4976112;28;20023;-72
2023/01/18 12:58:25;;;;;;;11.75;1.70;;;;;;;;;;4979447;28;20014;-72
2023/01/18 13:00:54;;;;;;;15.80;2.13;;;;;;;;;;4980844;28;20032;-72
2023/01/18 13:03:23;;;;;;;21.92;3.78;;;;;;;;;;4978304;28;20010;-72
2023/01/18 13:05:53;;;;;;;17.15;2.25;;;;;;;;;;4982870;28;20552;-72
2023/01/18 13:08:23;;;;;;;20.08;2.30;;;;;;;;;;4975750;28;20503;-71
2023/01/18 13:10:49;;;;;;;18.60;2.60;;;;;;;;;;4980561;28;20042;-72
2023/01/18 13:13:22;;;;;;;12.05;2.05;;;;;;;;;;4978654;28;20023;-71
2023/01/18 13:15:54;;;;;;;19.60;2.47;;;;;;;;;;4981256;28;20123;-71
2023/01/18 13:18:41;;;;;;;14.20;1.77;;;;;;;;;;4976567;28;20468;-72
2023/01/18 13:21:19;;;;;;;22.50;3.38;;;;;;;;;;4980124;28;20022;-72
2023/01/18 13:23:48;;;;;;;23.08;3.63;;;;;;;;;;4986140;28;20027;-72
2023/01/18 13:26:18;;;;;;;11.77;1.92;;;;;;;;;;4980050;28;20033;-72
2023/01/18 13:28:45;;;;;;;17.38;1.70;;;;;;;;;;4984384;28;20037;-72
2023/01/18 13:31:11;;;;;;;12.88;1.70;;;;;;;;;;4981145;28;20023;-72
2023/01/18 13:33:39;;;;;;;15.15;2.00;;;;;;;;;;4983984;28;20069;-72
2023/01/18 13:36:10;;;;;;;11.65;1.83;;;;;;;;;;4978726;28;20593;-72
2023/01/18 13:38:39;;;;;;;11.35;1.95;;;;;;;;;;4981096;28;20025;-72
2023/01/18 13:41:06;;;;;;;14.25;2.30;;;;;;;;;;4984013;28;20076;-72
2023/01/18 13:43:53;;;;;;;12.70;2.15;;;;;;;;;;4981051;28;20723;-72
2023/01/18 13:46:20;;;;;;;17.75;2.33;;;;;;;;;;4986379;28;20022;-72
2023/01/18 13:48:46;;;;;;;9.00;1.95;;;;;;;;;;4980278;28;20035;-72
2023/01/18 13:51:32;;;;;;;16.55;2.00;;;;;;;;;;4985843;28;20019;-72
2023/01/18 13:53:58;;;;;;;8.50;2.47;;;;;;;;;;4982767;28;20044;-72
2023/01/18 13:56:26;;;;;;;12.48;2.00;;;;;;;;;;4982916;28;20033;-72
2023/01/18 13:58:58;;;;;;;8.02;1.50;;;;;;;;;;4982618;28;20137;-72
2023/01/18 14:01:26;;;;;;;14.93;1.73;;;;;;;;;;4981791;28;20030;-72
2023/01/18 14:03:53;;;;;;;12.68;2.00;;;;;;;;;;4984846;28;20102;-72
2023/01/18 14:06:32;;;;;;;14.40;2.28;;;;;;;;;;4980580;28;20022;-72
2023/01/18 14:09:05;;;;;;;8.20;1.67;;;;;;;;;;4983172;28;20031;-72
2023/01/18 14:11:36;;;;;;;9.52;1.98;;;;;;;;;;4981503;28;20057;-71
2023/01/18 14:14:16;;;;;;;10.77;2.28;;;;;;;;;;4981966;28;20449;-72
2023/01/18 14:16:54;;;;;;;15.77;2.22;;;;;;;;;;4981014;28;20018;-72
2023/01/18 14:19:21;;;;;;;9.90;1.80;;;;;;;;;;4980101;28;20014;-72
2023/01/18 14:21:53;;;;;;;13.18;1.90;;;;;;;;;;4982555;28;20029;-72
2023/01/18 14:24:34;;;;;;;10.82;2.35;;;;;;;;;;4981329;28;20475;-71
2023/01/18 14:27:02;;;;;;;13.75;2.17;;;;;;;;;;4984178;28;20442;-72
2023/01/18 14:29:45;;;;;;;9.75;1.65;;;;;;;;;;4980927;28;20081;-72
2023/01/18 14:32:15;;;;;;;11.30;2.00;;;;;;;;;;4976781;28;20387;-71
2023/01/18 14:34:42;;;;;;;15.65;2.05;;;;;;;;;;4981265;28;20027;-73
2023/01/18 14:37:27;;;;;;;13.32;2.17;;;;;;;;;;4982376;28;20029;-72
2023/01/18 14:40:07;;;;;;;13.60;1.45;;;;;;;;;;4982854;28;20081;-71
2023/01/18 14:42:33;;;;;;;15.50;2.10;;;;;;;;;;4981185;28;20023;-71
2023/01/18 14:45:04;;;;;;;15.90;2.42;;;;;;;;;;4981292;28;20026;-72
2023/01/18 14:47:32;;;;;;;25.23;3.40;;;;;;;;;;4980675;28;20019;-71
2023/01/18 14:49:59;;;;;;;16.75;2.05;;;;;;;;;;4981718;28;20062;-71
2023/01/18 14:52:29;;;;;;;14.68;2.20;;;;;;;;;;4982774;28;20026;-72
2023/01/18 14:54:55;;;;;;;11.77;1.92;;;;;;;;;;4980463;28;20026;-72
2023/01/18 14:57:22;;;;;;;17.52;2.20;;;;;;;;;;4979772;28;20427;-72
2023/01/18 14:59:50;;;;;;;12.55;2.85;;;;;;;;;;4979212;28;20161;-72
2023/01/18 15:02:17;;;;;;;12.07;2.22;;;;;;;;;;4983882;28;20023;-74
2023/01/18 15:04:46;;;;;;;17.38;2.10;;;;;;;;;;4980685;28;20082;-71
2023/01/18 15:07:33;;;;;;;12.77;1.98;;;;;;;;;;4981724;28;20505;-72
2023/01/18 15:09:59;;;;;;;15.18;2.38;;;;;;;;;;4985009;28;20041;-71
2023/01/18 15:12:29;;;;;;;13.88;2.00;;;;;;;;;;4984495;28;20037;-70
2023/01/18 15:14:58;;;;;;;10.93;2.13;;;;;;;;;;4986145;28;20043;-71
2023/01/18 15:17:25;;;;;;;16.65;2.50;;;;;;;;;;4983707;28;20022;-72
2023/01/18 15:19:59;;;;;;;14.30;1.60;;;;;;;;;;4979895;28;20097;-71
2023/01/18 15:22:30;;;;;;;16.83;2.05;;;;;;;;;;4985254;28;20479;-70